sensor_id;sensor_type;location;lat;lon;timestamp;pressure;altitude;pressure_sealevel;temperature;humidity
24230;BME280;12362;50.004;8.006;2024-02-26T00:01:40;98700.25;;;7.93;100.00
24230;BME280;12362;50.004;8.006;2024-02-26T00:04:06;98699.72;;;8.00;100.00
24230;BME280;12362;50.004;8.006;2024-02-26T00:06:32;98706.47;;;8.03;100.00
24230;BME280;12362;50.004;8.006;2024-02-26T00:08:58;98701.38;;;8.01;100.00
24230;BME280;12362;50.004;8.006;2024-02-26T00:11:23;98713.91;;;8.07;100.00
24230;BME280;12362;50.004;8.006;2024-02-26T00:13:49;98720.75;;;8.08;100.00
24230;BME280;12362;50.004;8.006;2024-02-26T00:16:14;98721.47;;;8.10;100.00
24230;BME280;12362;50.004;8.006;2024-02-26T00:18:40;98716.09;;;8.13;100.00
24230;BME280;12362;50.004;8.006;2024-02-26T00:21:05;98712.84;;;8.23;100.00
24230;BME280;12362;50.004;8.006;2024-02-26T00:23:31;98709.94;;;8.28;100.00
24230;BME280;12362;50.004;8.006;2024-02-26T00:26:02;98699.50;;;8.29;100.00
24230;BME280;12362;50.004;8.006;2024-02-26T00:28:29;98694.56;;;8.26;100.00
24230;BME280;12362;50.004;8.006;2024-02-26T00:30:54;98694.91;;;8.08;100.00
24230;BME280;12362;50.004;8.006;2024-02-26T00:33:22;98692.41;;;8.07;100.00
24230;BME280;12362;50.004;8.006;2024-02-26T00:35:48;98693.84;;;7.98;100.00
24230;BME280;12362;50.004;8.006;2024-02-26T00:38:14;98694.78;;;7.97;100.00
24230;BME280;12362;50.004;8.006;2024-02-26T00:40:39;98695.50;;;7.99;100.00
24230;BME280;12362;50.004;8.006;2024-02-26T00:43:09;98700.75;;;7.98;100.00
24230;BME280;12362;50.004;8.006;2024-02-26T00:45:35;98700.88;;;7.96;100.00
24230;BME280;12362;50.004;8.006;2024-02-26T00:48:00;98711.94;;;7.98;100.00
24230;BME280;12362;50.004;8.006;2024-02-26T00:50:33;98707.59;;;7.99;100.00
24230;BME280;12362;50.004;8.006;2024-02-26T00:52:59;98708.44;;;7.99;100.00
24230;BME280;12362;50.004;8.006;2024-02-26T00:55:25;98713.88;;;7.95;100.00
24230;BME280;12362;50.004;8.006;2024-02-26T00:57:50;98695.63;;;7.71;100.00
24230;BME280;12362;50.004;8.006;2024-02-26T01:00:16;98699.50;;;7.52;100.00
24230;BME280;12362;50.004;8.006;2024-02-26T01:02:41;98690.13;;;7.37;100.00
24230;BME280;12362;50.004;8.006;2024-02-26T01:05:08;98694.84;;;7.30;100.00
24230;BME280;12362;50.004;8.006;2024-02-26T01:07:36;98685.44;;;7.29;100.00
24230;BME280;12362;50.004;8.006;2024-02-26T01:10:02;98680.38;;;7.28;100.00
24230;BME280;12362;50.004;8.006;2024-02-26T01:12:28;98688.38;;;7.37;100.00
24230;BME280;12362;50.004;8.006;2024-02-26T01:14:53;98679.16;;;7.60;100.00
24230;BME280;12362;50.004;8.006;2024-02-26T01:17:19;98682.91;;;7.68;100.00
24230;BME280;12362;50.004;8.006;2024-02-26T01:19:44;98659.28;;;7.74;100.00
24230;BME280;12362;50.004;8.006;2024-02-26T01:22:10;98702.16;;;7.77;100.00
24230;BME280;12362;50.004;8.006;2024-02-26T01:24:38;98695.56;;;7.85;100.00
24230;BME280;12362;50.004;8.006;2024-02-26T01:27:04;98704.44;;;7.81;100.00
24230;BME280;12362;50.004;8.006;2024-02-26T01:29:30;98707.84;;;7.82;100.00
24230;BME280;12362;50.004;8.006;2024-02-26T01:31:56;98700.94;;;7.82;100.00
24230;BME280;12362;50.004;8.006;2024-02-26T01:34:21;98709.31;;;7.86;100.00
24230;BME280;12362;50.004;8.006;2024-02-26T01:36:47;98724.44;;;8.04;100.00
24230;BME280;12362;50.004;8.006;2024-02-26T01:39:13;98725.91;;;8.08;100.00
24230;BME280;12362;50.004;8.006;2024-02-26T01:41:39;98716.78;;;8.16;100.00
24230;BME280;12362;50.004;8.006;2024-02-26T01:44:05;98709.47;;;8.09;100.00
24230;BME280;12362;50.004;8.006;2024-02-26T01:46:33;98700.13;;;7.94;100.00
24230;BME280;12362;50.004;8.006;2024-02-26T01:49:00;98691.03;;;7.89;100.00
24230;BME280;12362;50.004;8.006;2024-02-26T01:51:27;98682.00;;;7.82;100.00
24230;BME280;12362;50.004;8.006;2024-02-26T01:53:53;98672.63;;;7.81;100.00
24230;BME280;12362;50.004;8.006;2024-02-26T01:56:19;98693.91;;;7.84;100.00
24230;BME280;12362;50.004;8.006;2024-02-26T01:58:46;98704.56;;;7.92;100.00
24230;BME280;12362;50.004;8.006;2024-02-26T02:01:13;98712.88;;;7.97;100.00
24230;BME280;12362;50.004;8.006;2024-02-26T02:03:40;98716.81;;;8.03;100.00
24230;BME280;12362;50.004;8.006;2024-02-26T02:06:07;98735.78;;;8.15;100.00
24230;BME280;12362;50.004;8.006;2024-02-26T02:08:33;98742.00;;;8.25;100.00
24230;BME280;12362;50.004;8.006;2024-02-26T02:11:00;98743.88;;;8.23;100.00
24230;BME280;12362;50.004;8.006;2024-02-26T02:13:26;98755.38;;;8.32;100.00
24230;BME280;12362;50.004;8.006;2024-02-26T02:15:52;98762.28;;;8.31;100.00
24230;BME280;12362;50.004;8.006;2024-02-26T02:18:19;98756.69;;;8.25;100.00
24230;BME280;12362;50.004;8.006;2024-02-26T02:20:44;98758.63;;;8.21;100.00
24230;BME280;12362;50.004;8.006;2024-02-26T02:23:12;98763.06;;;8.19;100.00
24230;BME280;12362;50.004;8.006;2024-02-26T02:25:39;98766.03;;;8.13;100.00
24230;BME280;12362;50.004;8.006;2024-02-26T02:28:05;98762.53;;;8.14;100.00
24230;BME280;12362;50.004;8.006;2024-02-26T02:30:31;98770.75;;;8.21;100.00
24230;BME280;12362;50.004;8.006;2024-02-26T02:32:58;98760.72;;;8.16;100.00
24230;BME280;12362;50.004;8.006;2024-02-26T02:35:24;98763.22;;;8.04;100.00
24230;BME280;12362;50.004;8.006;2024-02-26T02:37:52;98766.22;;;7.98;100.00
24230;BME280;12362;50.004;8.006;2024-02-26T02:40:17;98777.03;;;7.91;100.00
24230;BME280;12362;50.004;8.006;2024-02-26T02:42:43;98786.44;;;7.92;100.00
24230;BME280;12362;50.004;8.006;2024-02-26T02:45:09;98781.84;;;7.83;100.00
24230;BME280;12362;50.004;8.006;2024-02-26T02:47:37;98786.84;;;7.72;100.00
24230;BME280;12362;50.004;8.006;2024-02-26T02:50:03;98786.06;;;7.57;100.00
24230;BME280;12362;50.004;8.006;2024-02-26T02:52:29;98782.22;;;7.50;100.00
24230;BME280;12362;50.004;8.006;2024-02-26T02:58:07;98776.50;;;7.45;100.00
24230;BME280;12362;50.004;8.006;2024-02-26T03:00:32;98779.25;;;7.42;100.00
24230;BME280;12362;50.004;8.006;2024-02-26T03:02:58;98779.66;;;7.36;100.00
24230;BME280;12362;50.004;8.006;2024-02-26T03:05:23;98784.56;;;7.27;100.00
24230;BME280;12362;50.004;8.006;2024-02-26T03:07:49;98785.69;;;7.09;100.00
24230;BME280;12362;50.004;8.006;2024-02-26T03:10:14;98786.03;;;7.03;100.00
24230;BME280;12362;50.004;8.006;2024-02-26T03:12:40;98787.50;;;6.93;100.00
24230;BME280;12362;50.004;8.006;2024-02-26T03:15:05;98776.72;;;7.01;100.00
24230;BME280;12362;50.004;8.006;2024-02-26T03:17:31;98773.03;;;7.05;100.00
24230;BME280;12362;50.004;8.006;2024-02-26T03:19:57;98774.63;;;6.93;100.00
24230;BME280;12362;50.004;8.006;2024-02-26T03:22:22;98772.66;;;6.97;100.00
24230;BME280;12362;50.004;8.006;2024-02-26T03:24:48;98771.66;;;6.99;100.00
24230;BME280;12362;50.004;8.006;2024-02-26T03:27:14;98773.97;;;6.90;100.00
24230;BME280;12362;50.004;8.006;2024-02-26T03:29:39;98776.25;;;6.80;100.00
24230;BME280;12362;50.004;8.006;2024-02-26T03:32:05;98780.41;;;6.83;100.00
24230;BME280;12362;50.004;8.006;2024-02-26T03:34:32;98778.03;;;6.80;100.00
24230;BME280;12362;50.004;8.006;2024-02-26T03:37:00;98783.44;;;6.75;100.00
24230;BME280;12362;50.004;8.006;2024-02-26T03:39:26;98775.69;;;6.75;100.00
24230;BME280;12362;50.004;8.006;2024-02-26T03:41:51;98781.69;;;6.76;100.00
24230;BME280;12362;50.004;8.006;2024-02-26T03:44:17;98786.75;;;6.77;100.00
24230;BME280;12362;50.004;8.006;2024-02-26T03:46:42;98781.53;;;6.79;100.00
24230;BME280;12362;50.004;8.006;2024-02-26T03:49:08;98791.63;;;6.82;100.00
24230;BME280;12362;50.004;8.006;2024-02-26T03:51:34;98780.22;;;6.72;100.00
24230;BME280;12362;50.004;8.006;2024-02-26T03:54:00;98781.13;;;6.71;100.00
24230;BME280;12362;50.004;8.006;2024-02-26T03:56:38;98781.56;;;6.63;100.00
24230;BME280;12362;50.004;8.006;2024-02-26T03:59:03;98785.75;;;6.66;100.00
24230;BME280;12362;50.004;8.006;2024-02-26T04:01:28;98781.84;;;6.59;100.00
24230;BME280;12362;50.004;8.006;2024-02-26T04:03:54;98774.97;;;6.59;100.00
24230;BME280;12362;50.004;8.006;2024-02-26T04:06:20;98778.56;;;6.57;100.00
24230;BME280;12362;50.004;8.006;2024-02-26T04:08:47;98773.41;;;6.57;100.00
24230;BME280;12362;50.004;8.006;2024-02-26T04:11:12;98771.81;;;6.54;100.00
24230;BME280;12362;50.004;8.006;2024-02-26T04:13:38;98776.69;;;6.59;100.00
24230;BME280;12362;50.004;8.006;2024-02-26T04:16:05;98783.59;;;6.58;100.00
24230;BME280;12362;50.004;8.006;2024-02-26T04:18:31;98784.44;;;6.59;100.00
24230;BME280;12362;50.004;8.006;2024-02-26T04:20:57;98785.34;;;6.58;100.00
24230;BME280;12362;50.004;8.006;2024-02-26T04:23:22;98786.19;;;6.58;100.00
24230;BME280;12362;50.004;8.006;2024-02-26T04:25:48;98782.75;;;6.58;100.00
24230;BME280;12362;50.004;8.006;2024-02-26T04:28:13;98787.00;;;6.59;100.00
24230;BME280;12362;50.004;8.006;2024-02-26T04:30:39;98780.19;;;6.58;100.00
24230;BME280;12362;50.004;8.006;2024-02-26T04:33:05;98786.34;;;6.55;100.00
24230;BME280;12362;50.004;8.006;2024-02-26T04:35:30;98792.25;;;6.57;100.00
24230;BME280;12362;50.004;8.006;2024-02-26T04:37:56;98796.66;;;6.55;100.00
24230;BME280;12362;50.004;8.006;2024-02-26T04:40:21;98786.09;;;6.60;100.00
24230;BME280;12362;50.004;8.006;2024-02-26T04:42:47;98794.19;;;6.54;100.00
24230;BME280;12362;50.004;8.006;2024-02-26T04:45:12;98790.69;;;6.55;100.00
24230;BME280;12362;50.004;8.006;2024-02-26T04:47:38;98796.94;;;6.51;100.00
24230;BME280;12362;50.004;8.006;2024-02-26T04:50:03;98796.66;;;6.55;100.00
24230;BME280;12362;50.004;8.006;2024-02-26T04:52:29;98806.22;;;6.53;100.00
24230;BME280;12362;50.004;8.006;2024-02-26T04:54:55;98799.53;;;6.51;100.00
24230;BME280;12362;50.004;8.006;2024-02-26T04:57:21;98798.78;;;6.49;100.00
24230;BME280;12362;50.004;8.006;2024-02-26T04:59:47;98802.38;;;6.46;100.00
24230;BME280;12362;50.004;8.006;2024-02-26T05:02:13;98807.34;;;6.49;100.00
24230;BME280;12362;50.004;8.006;2024-02-26T05:04:39;98810.66;;;6.51;100.00
24230;BME280;12362;50.004;8.006;2024-02-26T05:07:04;98803.84;;;6.50;100.00
24230;BME280;12362;50.004;8.006;2024-02-26T05:09:30;98795.44;;;6.47;100.00
24230;BME280;12362;50.004;8.006;2024-02-26T05:11:56;98807.41;;;6.48;100.00
24230;BME280;12362;50.004;8.006;2024-02-26T05:14:21;98808.81;;;6.53;100.00
24230;BME280;12362;50.004;8.006;2024-02-26T05:16:47;98815.16;;;6.48;100.00
24230;BME280;12362;50.004;8.006;2024-02-26T05:19:13;98810.75;;;6.50;100.00
24230;BME280;12362;50.004;8.006;2024-02-26T05:21:38;98816.81;;;6.49;100.00
24230;BME280;12362;50.004;8.006;2024-02-26T05:24:08;98805.59;;;6.50;100.00
24230;BME280;12362;50.004;8.006;2024-02-26T05:27:07;98803.59;;;6.55;100.00
24230;BME280;12362;50.004;8.006;2024-02-26T05:29:33;98802.19;;;6.49;100.00
24230;BME280;12362;50.004;8.006;2024-02-26T05:31:58;98804.50;;;6.54;100.00
24230;BME280;12362;50.004;8.006;2024-02-26T05:34:24;98795.09;;;6.53;100.00
24230;BME280;12362;50.004;8.006;2024-02-26T05:36:52;98797.84;;;6.50;100.00
24230;BME280;12362;50.004;8.006;2024-02-26T05:39:17;98792.69;;;6.50;100.00
24230;BME280;12362;50.004;8.006;2024-02-26T05:41:44;98797.59;;;6.54;100.00
24230;BME280;12362;50.004;8.006;2024-02-26T05:44:11;98801.66;;;6.58;100.00
24230;BME280;12362;50.004;8.006;2024-02-26T05:46:36;98809.22;;;6.61;100.00
24230;BME280;12362;50.004;8.006;2024-02-26T05:49:02;98808.31;;;6.62;100.00
24230;BME280;12362;50.004;8.006;2024-02-26T05:51:28;98803.16;;;6.62;100.00
24230;BME280;12362;50.004;8.006;2024-02-26T05:53:53;98809.00;;;6.64;100.00
24230;BME280;12362;50.004;8.006;2024-02-26T05:56:23;98799.81;;;6.60;100.00
24230;BME280;12362;50.004;8.006;2024-02-26T05:58:48;98810.50;;;6.68;100.00
24230;BME280;12362;50.004;8.006;2024-02-26T06:01:17;98807.28;;;6.65;100.00
24230;BME280;12362;50.004;8.006;2024-02-26T06:03:43;98816.75;;;6.64;100.00
24230;BME280;12362;50.004;8.006;2024-02-26T06:06:10;98810.78;;;6.64;100.00
24230;BME280;12362;50.004;8.006;2024-02-26T06:08:36;98814.19;;;6.64;100.00
24230;BME280;12362;50.004;8.006;2024-02-26T06:11:06;98823.06;;;6.74;100.00
24230;BME280;12362;50.004;8.006;2024-02-26T06:13:32;98833.28;;;6.76;100.00
24230;BME280;12362;50.004;8.006;2024-02-26T06:15:57;98835.28;;;6.71;100.00
24230;BME280;12362;50.004;8.006;2024-02-26T06:18:23;98837.69;;;6.74;100.00
24230;BME280;12362;50.004;8.006;2024-02-26T06:20:48;98837.97;;;6.69;100.00
24230;BME280;12362;50.004;8.006;2024-02-26T06:23:14;98849.56;;;6.76;100.00
24230;BME280;12362;50.004;8.006;2024-02-26T06:25:39;98850.41;;;6.77;100.00
24230;BME280;12362;50.004;8.006;2024-02-26T06:28:06;98851.22;;;6.77;100.00
24230;BME280;12362;50.004;8.006;2024-02-26T06:30:32;98854.66;;;6.78;100.00
24230;BME280;12362;50.004;8.006;2024-02-26T06:32:57;98853.81;;;6.77;100.00
24230;BME280;12362;50.004;8.006;2024-02-26T06:35:22;98851.97;;;6.79;100.00
24230;BME280;12362;50.004;8.006;2024-02-26T06:37:48;98864.69;;;6.82;100.00
24230;BME280;12362;50.004;8.006;2024-02-26T06:40:15;98875.78;;;6.84;100.00
24230;BME280;12362;50.004;8.006;2024-02-26T06:42:41;98873.94;;;6.86;100.00
24230;BME280;12362;50.004;8.006;2024-02-26T06:45:09;98878.34;;;6.84;100.00
24230;BME280;12362;50.004;8.006;2024-02-26T06:47:35;98866.44;;;6.82;100.00
24230;BME280;12362;50.004;8.006;2024-02-26T06:50:00;98878.50;;;6.81;100.00
24230;BME280;12362;50.004;8.006;2024-02-26T06:52:26;98877.69;;;6.81;100.00
24230;BME280;12362;50.004;8.006;2024-02-26T06:54:52;98881.25;;;6.78;100.00
24230;BME280;12362;50.004;8.006;2024-02-26T06:57:21;98884.59;;;6.80;100.00
24230;BME280;12362;50.004;8.006;2024-02-26T06:59:46;98883.66;;;6.81;100.00
24230;BME280;12362;50.004;8.006;2024-02-26T07:02:15;98898.13;;;6.84;100.00
24230;BME280;12362;50.004;8.006;2024-02-26T07:04:42;98893.81;;;6.84;100.00
24230;BME280;12362;50.004;8.006;2024-02-26T07:07:08;98907.53;;;6.85;100.00
24230;BME280;12362;50.004;8.006;2024-02-26T07:09:34;98912.63;;;6.86;100.00
24230;BME280;12362;50.004;8.006;2024-02-26T07:11:59;98916.94;;;6.86;100.00
24230;BME280;12362;50.004;8.006;2024-02-26T07:14:25;98920.25;;;6.88;100.00
24230;BME280;12362;50.004;8.006;2024-02-26T07:16:51;98923.84;;;6.85;100.00
24230;BME280;12362;50.004;8.006;2024-02-26T07:19:16;98927.16;;;6.87;100.00
24230;BME280;12362;50.004;8.006;2024-02-26T07:21:42;98920.38;;;6.86;100.00
24230;BME280;12362;50.004;8.006;2024-02-26T07:24:08;98919.34;;;6.89;100.00
24230;BME280;12362;50.004;8.006;2024-02-26T07:26:34;98928.81;;;6.88;100.00
24230;BME280;12362;50.004;8.006;2024-02-26T07:29:00;98929.94;;;6.84;100.00
24230;BME280;12362;50.004;8.006;2024-02-26T07:31:26;98935.16;;;6.83;100.00
24230;BME280;12362;50.004;8.006;2024-02-26T07:33:52;98931.75;;;6.82;100.00
24230;BME280;12362;50.004;8.006;2024-02-26T07:36:17;98932.59;;;6.83;100.00
24230;BME280;12362;50.004;8.006;2024-02-26T07:38:43;98935.09;;;6.84;100.00
24230;BME280;12362;50.004;8.006;2024-02-26T07:41:08;98944.66;;;6.82;100.00
24230;BME280;12362;50.004;8.006;2024-02-26T07:43:34;98935.53;;;6.77;100.00
24230;BME280;12362;50.004;8.006;2024-02-26T07:45:59;98933.09;;;6.74;100.00
24230;BME280;12362;50.004;8.006;2024-02-26T07:48:25;98939.78;;;6.78;100.00
24230;BME280;12362;50.004;8.006;2024-02-26T07:50:51;98941.59;;;6.76;100.00
24230;BME280;12362;50.004;8.006;2024-02-26T07:53:16;98945.00;;;6.76;100.00
24230;BME280;12362;50.004;8.006;2024-02-26T07:55:45;98950.31;;;6.89;100.00
24230;BME280;12362;50.004;8.006;2024-02-26T07:58:18;98953.16;;;6.84;100.00
24230;BME280;12362;50.004;8.006;2024-02-26T08:00:44;98949.66;;;6.85;100.00
24230;BME280;12362;50.004;8.006;2024-02-26T08:03:11;98956.13;;;6.92;100.00
24230;BME280;12362;50.004;8.006;2024-02-26T08:05:38;98951.69;;;6.94;100.00
24230;BME280;12362;50.004;8.006;2024-02-26T08:08:06;98960.19;;;6.96;100.00
24230;BME280;12362;50.004;8.006;2024-02-26T08:10:32;98962.94;;;6.93;100.00
24230;BME280;12362;50.004;8.006;2024-02-26T08:12:57;98958.03;;;6.89;100.00
24230;BME280;12362;50.004;8.006;2024-02-26T08:15:31;98967.34;;;6.91;100.00
24230;BME280;12362;50.004;8.006;2024-02-26T08:17:56;98963.72;;;6.80;100.00
24230;BME280;12362;50.004;8.006;2024-02-26T08:20:22;98972.88;;;6.85;100.00
24230;BME280;12362;50.004;8.006;2024-02-26T08:22:47;98975.44;;;6.85;100.00
24230;BME280;12362;50.004;8.006;2024-02-26T08:25:13;98966.88;;;6.85;100.00
24230;BME280;12362;50.004;8.006;2024-02-26T08:27:38;98974.75;;;6.82;100.00
24230;BME280;12362;50.004;8.006;2024-02-26T08:30:04;98974.88;;;6.80;100.00
24230;BME280;12362;50.004;8.006;2024-02-26T08:32:29;98976.38;;;6.84;100.00
24230;BME280;12362;50.004;8.006;2024-02-26T08:34:55;98974.44;;;6.88;100.00
24230;BME280;12362;50.004;8.006;2024-02-26T08:37:21;98977.66;;;6.91;100.00
24230;BME280;12362;50.004;8.006;2024-02-26T08:39:47;98978.50;;;6.92;100.00
24230;BME280;12362;50.004;8.006;2024-02-26T08:42:12;98985.41;;;6.91;100.00
24230;BME280;12362;50.004;8.006;2024-02-26T08:44:37;98989.50;;;6.95;100.00
24230;BME280;12362;50.004;8.006;2024-02-26T08:47:03;98992.13;;;6.94;100.00
24230;BME280;12362;50.004;8.006;2024-02-26T08:49:29;98986.06;;;6.95;100.00
24230;BME280;12362;50.004;8.006;2024-02-26T08:51:54;98990.66;;;6.90;100.00
24230;BME280;12362;50.004;8.006;2024-02-26T08:54:19;98990.81;;;6.87;100.00
24230;BME280;12362;50.004;8.006;2024-02-26T08:56:45;98998.81;;;6.82;100.00
24230;BME280;12362;50.004;8.006;2024-02-26T08:59:11;98994.00;;;6.92;100.00
24230;BME280;12362;50.004;8.006;2024-02-26T09:01:36;99004.31;;;6.92;100.00
24230;BME280;12362;50.004;8.006;2024-02-26T09:04:01;98988.41;;;6.84;100.00
24230;BME280;12362;50.004;8.006;2024-02-26T09:06:27;98985.34;;;6.93;100.00
24230;BME280;12362;50.004;8.006;2024-02-26T09:08:53;98977.88;;;7.02;100.00
24230;BME280;12362;50.004;8.006;2024-02-26T09:11:18;98972.81;;;7.01;100.00
24230;BME280;12362;50.004;8.006;2024-02-26T09:13:44;98973.38;;;7.06;100.00
24230;BME280;12362;50.004;8.006;2024-02-26T09:16:11;98984.19;;;7.12;100.00
24230;BME280;12362;50.004;8.006;2024-02-26T09:18:37;98983.66;;;7.21;100.00
24230;BME280;12362;50.004;8.006;2024-02-26T09:21:06;98993.84;;;7.38;100.00
24230;BME280;12362;50.004;8.006;2024-02-26T09:23:32;98992.66;;;7.43;100.00
24230;BME280;12362;50.004;8.006;2024-02-26T09:25:58;98985.75;;;7.72;100.00
24230;BME280;12362;50.004;8.006;2024-02-26T09:28:23;98996.09;;;8.13;100.00
24230;BME280;12362;50.004;8.006;2024-02-26T09:30:49;98982.09;;;8.04;100.00
24230;BME280;12362;50.004;8.006;2024-02-26T09:33:16;98987.91;;;8.21;100.00
24230;BME280;12362;50.004;8.006;2024-02-26T09:35:42;98983.19;;;8.27;100.00
24230;BME280;12362;50.004;8.006;2024-02-26T09:38:08;98990.81;;;8.15;100.00
24230;BME280;12362;50.004;8.006;2024-02-26T09:40:34;98980.44;;;8.16;100.00
24230;BME280;12362;50.004;8.006;2024-02-26T09:43:00;98994.75;;;8.22;100.00
24230;BME280;12362;50.004;8.006;2024-02-26T09:45:28;98986.63;;;8.54;100.00
24230;BME280;12362;50.004;8.006;2024-02-26T09:47:55;98985.06;;;8.78;100.00
24230;BME280;12362;50.004;8.006;2024-02-26T09:50:21;98987.22;;;8.98;100.00
24230;BME280;12362;50.004;8.006;2024-02-26T09:52:51;98986.28;;;8.99;100.00
24230;BME280;12362;50.004;8.006;2024-02-26T09:55:17;98985.81;;;9.19;100.00
24230;BME280;12362;50.004;8.006;2024-02-26T09:57:45;98988.28;;;9.20;100.00
24230;BME280;12362;50.004;8.006;2024-02-26T10:00:17;98986.84;;;9.16;100.00
24230;BME280;12362;50.004;8.006;2024-02-26T10:02:46;99008.09;;;9.21;100.00
24230;BME280;12362;50.004;8.006;2024-02-26T10:05:17;99003.28;;;8.77;100.00
24230;BME280;12362;50.004;8.006;2024-02-26T10:07:45;99008.56;;;8.75;100.00
24230;BME280;12362;50.004;8.006;2024-02-26T10:10:11;99008.84;;;8.97;100.00
24230;BME280;12362;50.004;8.006;2024-02-26T10:12:38;99014.09;;;8.83;100.00
24230;BME280;12362;50.004;8.006;2024-02-26T10:15:03;99016.41;;;8.74;100.00
24230;BME280;12362;50.004;8.006;2024-02-26T10:17:29;99011.97;;;9.02;100.00
24230;BME280;12362;50.004;8.006;2024-02-26T10:20:11;99013.91;;;8.86;100.00
24230;BME280;12362;50.004;8.006;2024-02-26T10:22:37;99009.94;;;8.81;100.00
24230;BME280;12362;50.004;8.006;2024-02-26T10:25:03;99009.56;;;8.73;100.00
24230;BME280;12362;50.004;8.006;2024-02-26T10:27:29;99011.53;;;8.69;100.00
24230;BME280;12362;50.004;8.006;2024-02-26T10:29:56;99023.94;;;8.64;100.00
24230;BME280;12362;50.004;8.006;2024-02-26T10:32:22;99022.66;;;8.84;100.00
24230;BME280;12362;50.004;8.006;2024-02-26T10:34:48;99027.97;;;8.68;100.00
24230;BME280;12362;50.004;8.006;2024-02-26T10:37:13;99034.28;;;8.64;100.00
24230;BME280;12362;50.004;8.006;2024-02-26T10:39:46;99035.06;;;8.52;100.00
24230;BME280;12362;50.004;8.006;2024-02-26T10:42:12;99034.81;;;8.69;100.00
24230;BME280;12362;50.004;8.006;2024-02-26T10:44:40;99042.06;;;8.50;100.00
24230;BME280;12362;50.004;8.006;2024-02-26T10:47:07;99045.19;;;8.55;100.00
24230;BME280;12362;50.004;8.006;2024-02-26T10:49:35;99052.03;;;8.56;100.00
24230;BME280;12362;50.004;8.006;2024-02-26T10:52:01;99050.38;;;8.41;100.00
24230;BME280;12362;50.004;8.006;2024-02-26T10:54:29;99061.13;;;8.35;100.00
24230;BME280;12362;50.004;8.006;2024-02-26T10:56:56;99064.81;;;8.31;100.00
24230;BME280;12362;50.004;8.006;2024-02-26T10:59:23;99070.25;;;8.41;100.00
24230;BME280;12362;50.004;8.006;2024-02-26T11:01:48;99063.25;;;8.43;100.00
24230;BME280;12362;50.004;8.006;2024-02-26T11:04:16;99073.13;;;8.50;100.00
24230;BME280;12362;50.004;8.006;2024-02-26T11:06:42;99072.44;;;8.47;100.00
24230;BME280;12362;50.004;8.006;2024-02-26T11:09:11;99079.56;;;8.57;100.00
24230;BME280;12362;50.004;8.006;2024-02-26T11:11:38;99077.84;;;8.44;100.00
24230;BME280;12362;50.004;8.006;2024-02-26T11:14:06;99084.19;;;8.52;100.00
24230;BME280;12362;50.004;8.006;2024-02-26T11:16:34;99078.81;;;8.41;100.00
24230;BME280;12362;50.004;8.006;2024-02-26T11:19:02;99085.75;;;8.55;100.00
24230;BME280;12362;50.004;8.006;2024-02-26T11:21:28;99082.59;;;8.64;100.00
24230;BME280;12362;50.004;8.006;2024-02-26T11:24:15;99080.00;;;8.64;100.00
24230;BME280;12362;50.004;8.006;2024-02-26T11:26:52;99068.44;;;8.69;100.00
24230;BME280;12362;50.004;8.006;2024-02-26T11:29:27;99078.47;;;8.47;100.00
24230;BME280;12362;50.004;8.006;2024-02-26T11:31:54;99073.75;;;8.54;100.00
24230;BME280;12362;50.004;8.006;2024-02-26T11:34:19;99081.63;;;8.52;100.00
24230;BME280;12362;50.004;8.006;2024-02-26T11:36:48;99082.91;;;8.45;100.00
24230;BME280;12362;50.004;8.006;2024-02-26T11:39:14;99096.56;;;8.33;100.00
24230;BME280;12362;50.004;8.006;2024-02-26T11:41:42;99093.81;;;8.50;100.00
24230;BME280;12362;50.004;8.006;2024-02-26T11:44:08;99083.00;;;8.58;100.00
24230;BME280;12362;50.004;8.006;2024-02-26T11:46:41;99087.50;;;8.54;100.00
24230;BME280;12362;50.004;8.006;2024-02-26T11:51:56;99080.09;;;8.76;100.00
24230;BME280;12362;50.004;8.006;2024-02-26T11:57:29;99090.66;;;8.59;100.00
24230;BME280;12362;50.004;8.006;2024-02-26T12:02:46;99084.91;;;8.68;100.00
24230;BME280;12362;50.004;8.006;2024-02-26T12:05:20;99089.16;;;8.69;100.00
24230;BME280;12362;50.004;8.006;2024-02-26T12:07:52;99082.09;;;8.85;100.00
24230;BME280;12362;50.004;8.006;2024-02-26T12:10:25;99080.75;;;9.06;100.00
24230;BME280;12362;50.004;8.006;2024-02-26T12:13:03;99087.31;;;9.24;100.00
24230;BME280;12362;50.004;8.006;2024-02-26T12:15:33;99085.16;;;9.18;100.00
24230;BME280;12362;50.004;8.006;2024-02-26T12:18:02;99093.72;;;9.18;100.00
24230;BME280;12362;50.004;8.006;2024-02-26T12:20:28;99085.81;;;9.07;100.00
24230;BME280;12362;50.004;8.006;2024-02-26T12:22:54;99087.75;;;9.30;100.00
24230;BME280;12362;50.004;8.006;2024-02-26T12:25:25;99077.59;;;9.54;100.00
24230;BME280;12362;50.004;8.006;2024-02-26T12:27:53;99080.59;;;9.60;100.00
24230;BME280;12362;50.004;8.006;2024-02-26T12:30:18;99080.41;;;9.63;100.00
24230;BME280;12362;50.004;8.006;2024-02-26T12:32:46;99084.78;;;9.88;100.00
24230;BME280;12362;50.004;8.006;2024-02-26T12:35:13;99087.91;;;9.93;100.00
24230;BME280;12362;50.004;8.006;2024-02-26T12:37:43;99074.47;;;10.00;100.00
24230;BME280;12362;50.004;8.006;2024-02-26T12:40:09;99064.63;;;10.17;100.00
24230;BME280;12362;50.004;8.006;2024-02-26T12:42:36;99070.09;;;10.25;100.00
24230;BME280;12362;50.004;8.006;2024-02-26T12:45:10;99078.31;;;10.07;100.00
24230;BME280;12362;50.004;8.006;2024-02-26T12:47:41;99077.38;;;10.08;100.00
24230;BME280;12362;50.004;8.006;2024-02-26T12:50:08;99086.88;;;9.95;100.00
24230;BME280;12362;50.004;8.006;2024-02-26T12:52:35;99082.88;;;10.03;100.00
24230;BME280;12362;50.004;8.006;2024-02-26T12:55:02;99076.50;;;10.32;100.00
24230;BME280;12362;50.004;8.006;2024-02-26T12:57:30;99080.97;;;10.30;100.00
24230;BME280;12362;50.004;8.006;2024-02-26T12:59:57;99082.81;;;10.66;100.00
24230;BME280;12362;50.004;8.006;2024-02-26T13:02:23;99077.56;;;10.78;100.00
24230;BME280;12362;50.004;8.006;2024-02-26T13:04:53;99084.06;;;10.96;100.00
24230;BME280;12362;50.004;8.006;2024-02-26T13:07:20;99081.50;;;10.83;100.00
24230;BME280;12362;50.004;8.006;2024-02-26T13:09:46;99082.63;;;10.92;100.00